createdAt,value
2018-12-14T00:02:25.066Z,53.00
2018-12-14T00:04:52.710Z,53.20
2018-12-14T00:07:20.261Z,53.40
2018-12-14T00:09:47.950Z,53.50
2018-12-14T00:12:15.607Z,53.80
2018-12-14T00:14:43.176Z,53.70
2018-12-14T00:17:10.736Z,53.70
2018-12-14T00:19:38.418Z,53.70
2018-12-14T00:22:05.950Z,53.90
2018-12-14T00:24:33.513Z,54.10
2018-12-14T00:27:01.357Z,54.00
2018-12-14T00:29:28.906Z,54.10
2018-12-14T00:31:56.517Z,54.10
2018-12-14T00:34:24.082Z,54.00
2018-12-14T00:36:51.614Z,54.00
2018-12-14T00:39:19.172Z,53.80
2018-12-14T00:41:51.988Z,53.80
2018-12-14T00:44:16.350Z,53.40
2018-12-14T00:46:44.789Z,53.70
2018-12-14T00:49:12.393Z,53.70
2018-12-14T00:51:39.950Z,53.60
2018-12-14T00:54:07.737Z,53.40
2018-12-14T00:56:35.321Z,53.30
2018-12-14T00:59:02.838Z,53.00
2018-12-14T01:01:30.409Z,53.50
2018-12-14T01:03:57.968Z,53.30
2018-12-14T01:06:25.622Z,53.30
2018-12-14T01:08:53.180Z,53.40
2018-12-14T01:11:20.970Z,53.30
2018-12-14T01:13:48.711Z,53.40
2018-12-14T01:16:16.247Z,53.20
2018-12-14T01:18:43.766Z,53.20
2018-12-14T01:21:11.359Z,53.10
2018-12-14T01:23:39.072Z,53.00
2018-12-14T01:26:06.614Z,53.80
2018-12-14T01:28:34.185Z,52.90
2018-12-14T01:31:01.751Z,53.00
2018-12-14T01:33:29.327Z,52.90
2018-12-14T01:35:56.999Z,52.90
2018-12-14T01:38:24.512Z,52.70
2018-12-14T01:40:52.100Z,52.80
2018-12-14T01:43:19.620Z,53.00
2018-12-14T01:45:47.306Z,53.70
2018-12-14T01:48:14.844Z,52.80
2018-12-14T01:50:42.427Z,53.10
2018-12-14T01:53:09.970Z,52.90
2018-12-14T01:55:37.962Z,53.00
2018-12-14T01:58:05.590Z,53.10
2018-12-14T02:00:33.253Z,53.10
2018-12-14T02:03:00.999Z,53.10
2018-12-14T02:05:28.610Z,53.10
2018-12-14T02:07:56.261Z,52.80
2018-12-14T02:10:23.838Z,53.30
2018-12-14T02:12:51.434Z,52.90
2018-12-14T02:15:18.980Z,53.00
2018-12-14T02:17:46.563Z,53.00
2018-12-14T02:20:14.234Z,53.10
2018-12-14T02:22:41.878Z,53.20
2018-12-14T02:25:09.422Z,53.20
2018-12-14T02:27:36.987Z,53.00
2018-12-14T02:30:16.536Z,53.00
2018-12-14T02:32:44.205Z,52.80
2018-12-14T02:35:11.722Z,52.90
2018-12-14T02:37:39.329Z,53.40
2018-12-14T02:40:07.091Z,52.90
2018-12-14T02:42:34.846Z,52.80
2018-12-14T02:45:02.629Z,52.80
2018-12-14T02:47:31.323Z,53.00
2018-12-14T02:49:58.921Z,53.10
2018-12-14T02:52:26.619Z,53.10
2018-12-14T02:54:54.151Z,52.80
2018-12-14T02:57:21.768Z,52.90
2018-12-14T02:59:49.313Z,52.90
2018-12-14T03:02:16.906Z,53.10
2018-12-14T03:04:44.470Z,52.90
2018-12-14T03:07:12.052Z,53.10
2018-12-14T03:09:39.795Z,53.00
2018-12-14T03:12:07.346Z,53.00
2018-12-14T03:14:35.089Z,52.60
2018-12-14T03:17:02.754Z,52.50
2018-12-14T03:19:30.284Z,52.60
2018-12-14T03:21:57.874Z,52.70
2018-12-14T03:24:25.399Z,52.60
2018-12-14T03:26:53.055Z,52.50
2018-12-14T03:29:20.685Z,52.40
2018-12-14T03:31:48.337Z,52.50
2018-12-14T03:34:15.890Z,52.30
2018-12-14T03:36:43.482Z,52.10
2018-12-14T03:39:11.185Z,52.30
2018-12-14T03:41:38.697Z,52.00
2018-12-14T03:44:06.285Z,52.10
2018-12-14T03:46:34.036Z,52.30
2018-12-14T03:49:01.658Z,52.40
2018-12-14T03:51:29.197Z,52.50
2018-12-14T03:53:56.859Z,52.70
2018-12-14T03:56:24.495Z,52.40
2018-12-14T03:58:52.047Z,52.60
2018-12-14T04:01:19.582Z,52.50
2018-12-14T04:03:47.133Z,52.50
2018-12-14T04:06:14.664Z,52.40
2018-12-14T04:08:42.325Z,52.40
2018-12-14T04:11:10.090Z,52.60
2018-12-14T04:13:37.619Z,52.40
2018-12-14T04:16:05.229Z,52.70
2018-12-14T04:18:32.824Z,52.50
2018-12-14T04:21:00.374Z,52.80
2018-12-14T04:23:28.062Z,52.50
2018-12-14T04:25:55.639Z,52.50
2018-12-14T04:28:23.336Z,52.50
2018-12-14T04:30:50.865Z,52.40
2018-12-14T04:33:18.839Z,52.20
2018-12-14T04:35:46.481Z,52.10
2018-12-14T04:38:14.085Z,52.30
2018-12-14T04:40:41.723Z,52.30
2018-12-14T04:43:09.396Z,52.20
2018-12-14T04:45:36.928Z,52.40
2018-12-14T04:48:04.446Z,52.30
2018-12-14T04:50:32.000Z,52.30
2018-12-14T04:52:59.589Z,52.10
2018-12-14T04:55:27.123Z,52.10
2018-12-14T04:57:54.702Z,52.30
2018-12-14T05:00:22.362Z,52.10
2018-12-14T05:02:49.955Z,51.90
2018-12-14T05:05:17.475Z,52.10
2018-12-14T05:07:45.046Z,51.90
2018-12-14T05:10:12.597Z,51.90
2018-12-14T05:12:40.273Z,51.90
2018-12-14T05:15:07.990Z,52.40
2018-12-14T05:17:35.810Z,51.70
2018-12-14T05:20:04.419Z,51.70
2018-12-14T05:22:31.971Z,51.70
2018-12-14T05:24:59.631Z,51.80
2018-12-14T05:27:27.222Z,51.70
2018-12-14T05:29:55.043Z,51.80
2018-12-14T05:32:22.607Z,51.90
2018-12-14T05:34:50.222Z,51.80
2018-12-14T05:37:17.767Z,51.60
2018-12-14T05:39:45.350Z,51.40
2018-12-14T05:42:12.914Z,51.40
2018-12-14T05:44:40.476Z,51.70
2018-12-14T05:47:08.022Z,51.60
2018-12-14T05:49:35.812Z,51.40
2018-12-14T05:52:03.385Z,51.40
2018-12-14T05:54:30.971Z,51.30
2018-12-14T05:56:58.582Z,51.60
2018-12-14T05:59:26.164Z,51.30
2018-12-14T06:01:53.694Z,51.60
2018-12-14T06:04:21.310Z,51.80
2018-12-14T06:06:49.197Z,51.90
2018-12-14T06:09:17.036Z,51.90
2018-12-14T06:11:44.617Z,51.80
2018-12-14T06:14:12.181Z,51.70
2018-12-14T06:16:39.762Z,51.80
2018-12-14T06:19:07.388Z,52.10
2018-12-14T06:21:35.086Z,51.90
2018-12-14T06:24:02.666Z,51.90
2018-12-14T06:26:30.282Z,51.80
2018-12-14T06:28:57.857Z,52.10
2018-12-14T06:31:25.463Z,51.90
2018-12-14T06:33:53.072Z,51.60
2018-12-14T06:36:20.622Z,51.60
2018-12-14T06:38:48.205Z,51.30
2018-12-14T06:41:15.958Z,51.40
2018-12-14T06:43:43.493Z,51.80
2018-12-14T06:46:11.148Z,51.70
2018-12-14T06:48:38.690Z,51.60
2018-12-14T06:51:06.740Z,51.70
2018-12-14T06:53:34.418Z,51.60
2018-12-14T06:56:02.901Z,51.90
2018-12-14T06:58:30.447Z,51.90
2018-12-14T07:00:58.062Z,51.80
2018-12-14T07:03:25.604Z,52.10
2018-12-14T07:05:53.151Z,52.10
2018-12-14T07:08:20.695Z,52.10
2018-12-14T07:10:48.292Z,51.90
2018-12-14T07:13:21.734Z,52.00
2018-12-14T07:15:46.338Z,51.70
2018-12-14T07:18:13.888Z,51.90
2018-12-14T07:20:41.509Z,51.60
2018-12-14T07:23:09.088Z,51.70
2018-12-14T07:25:36.754Z,51.80
2018-12-14T07:28:04.313Z,51.80
2018-12-14T07:30:31.953Z,51.90
2018-12-14T07:32:59.619Z,51.40
2018-12-14T07:35:27.409Z,51.60
2018-12-14T07:37:54.982Z,51.80
2018-12-14T07:40:22.532Z,51.50
2018-12-14T07:42:50.087Z,51.50
2018-12-14T07:45:17.866Z,51.50
2018-12-14T07:47:45.418Z,51.30
2018-12-14T07:50:13.096Z,51.30
2018-12-14T07:52:40.628Z,51.40
2018-12-14T07:55:08.238Z,51.60
2018-12-14T07:57:35.996Z,51.50
2018-12-14T08:00:05.427Z,51.30
2018-12-14T08:02:32.969Z,51.50
2018-12-14T08:05:00.564Z,51.70
2018-12-14T08:07:28.139Z,51.50
2018-12-14T08:09:55.766Z,51.40
2018-12-14T08:12:23.330Z,51.00
2018-12-14T08:14:50.897Z,51.10
2018-12-14T08:17:18.559Z,51.10
2018-12-14T08:19:46.080Z,50.80
2018-12-14T08:22:13.687Z,50.60
2018-12-14T08:24:41.253Z,50.90
2018-12-14T08:27:08.846Z,50.70
2018-12-14T08:29:36.527Z,50.80
2018-12-14T08:32:04.067Z,51.00
2018-12-14T08:34:31.816Z,50.80
2018-12-14T08:36:59.342Z,50.50
2018-12-14T08:39:26.958Z,50.50
2018-12-14T08:41:54.492Z,50.60
2018-12-14T08:44:22.069Z,50.80
2018-12-14T08:46:49.667Z,50.90
2018-12-14T08:49:17.232Z,51.00
2018-12-14T08:51:44.773Z,51.10
2018-12-14T08:54:12.345Z,50.90
2018-12-14T08:56:39.901Z,50.80
2018-12-14T08:59:07.461Z,50.90
2018-12-14T09:01:35.178Z,50.80
2018-12-14T09:04:02.705Z,50.60
2018-12-14T09:06:30.274Z,50.60
2018-12-14T09:08:58.238Z,50.50
2018-12-14T09:11:25.776Z,50.40
2018-12-14T09:13:53.567Z,50.50
2018-12-14T09:16:21.143Z,50.50
2018-12-14T09:18:49.597Z,50.60
2018-12-14T09:21:17.158Z,50.60
2018-12-14T09:23:44.715Z,50.50
2018-12-14T09:26:12.572Z,50.20
2018-12-14T09:28:40.306Z,50.00
2018-12-14T09:31:07.988Z,50.00
2018-12-14T09:33:35.539Z,50.20
2018-12-14T09:36:03.084Z,50.00
2018-12-14T09:38:30.767Z,51.60
2018-12-14T09:40:58.315Z,51.90
2018-12-14T09:43:27.548Z,51.60
2018-12-14T09:45:55.198Z,51.50
2018-12-14T09:48:22.845Z,51.30
2018-12-14T09:50:50.385Z,50.80
2018-12-14T09:53:17.909Z,50.30
2018-12-14T09:55:45.714Z,50.80
2018-12-14T09:58:13.262Z,49.70
2018-12-14T10:00:41.891Z,48.50
2018-12-14T10:03:09.441Z,47.90
2018-12-14T10:05:37.159Z,47.50
2018-12-14T10:08:04.906Z,48.20
2018-12-14T10:10:32.562Z,48.00
2018-12-14T10:13:00.126Z,48.10
2018-12-14T10:15:27.719Z,48.20
2018-12-14T10:17:55.363Z,48.00
2018-12-14T10:20:22.935Z,47.90
2018-12-14T10:22:50.441Z,47.80
2018-12-14T10:25:17.991Z,48.10
2018-12-14T10:27:45.525Z,47.70
2018-12-14T10:30:13.365Z,47.70
2018-12-14T10:32:40.927Z,47.60
2018-12-14T10:35:09.792Z,47.40
2018-12-14T10:37:37.493Z,47.80
2018-12-14T10:40:09.396Z,47.80
2018-12-14T10:42:36.961Z,47.70
2018-12-14T10:45:05.902Z,47.50
2018-12-14T10:47:33.711Z,47.50
2018-12-14T10:50:01.264Z,47.50
2018-12-14T10:52:28.853Z,47.50
2018-12-14T10:54:56.484Z,47.50
2018-12-14T10:57:24.064Z,47.90
2018-12-14T10:59:51.686Z,47.70
2018-12-14T11:02:19.213Z,47.60
2018-12-14T11:04:46.735Z,47.60
2018-12-14T11:07:14.290Z,47.40
2018-12-14T11:09:41.822Z,47.60
2018-12-14T11:12:09.377Z,47.60
2018-12-14T11:14:37.017Z,47.20
2018-12-14T11:17:05.614Z,47.00
2018-12-14T11:19:33.361Z,47.00
2018-12-14T11:22:00.885Z,47.10
2018-12-14T11:24:28.545Z,47.30
2018-12-14T11:26:56.107Z,47.00
2018-12-14T11:29:23.691Z,47.00
2018-12-14T11:31:51.231Z,47.70
2018-12-14T11:34:18.823Z,46.80
2018-12-14T11:36:46.534Z,46.60
2018-12-14T11:39:14.065Z,46.70
2018-12-14T11:41:41.826Z,46.70
2018-12-14T11:44:09.408Z,46.60
2018-12-14T11:46:36.976Z,46.80
2018-12-14T11:49:04.555Z,46.60
2018-12-14T11:51:32.181Z,46.60
2018-12-14T11:53:59.766Z,46.70
2018-12-14T11:56:27.323Z,46.70
2018-12-14T11:58:54.949Z,46.60
2018-12-14T12:01:22.558Z,46.10
2018-12-14T12:03:50.115Z,46.30
2018-12-14T12:06:17.770Z,45.80
2018-12-14T12:08:45.367Z,46.10
2018-12-14T12:11:13.044Z,46.20
2018-12-14T12:13:40.614Z,46.50
2018-12-14T12:16:08.183Z,46.40
2018-12-14T12:18:35.739Z,46.50
2018-12-14T12:21:03.396Z,46.20
2018-12-14T12:23:31.000Z,46.30
2018-12-14T12:25:58.537Z,46.20
2018-12-14T12:28:26.097Z,46.30
2018-12-14T12:30:53.679Z,46.00
2018-12-14T12:33:21.281Z,45.90
2018-12-14T12:35:48.990Z,46.20
2018-12-14T12:38:16.526Z,46.30
2018-12-14T12:40:44.090Z,46.30
2018-12-14T12:43:11.691Z,46.20
2018-12-14T12:45:39.391Z,46.20
2018-12-14T12:48:06.971Z,46.40
2018-12-14T12:50:34.530Z,46.60
2018-12-14T12:53:02.152Z,46.80
2018-12-14T12:55:30.656Z,46.60
2018-12-14T12:57:58.251Z,46.80
2018-12-14T13:00:25.927Z,46.70
2018-12-14T13:02:53.459Z,46.90
2018-12-14T13:05:21.021Z,46.70
2018-12-14T13:07:48.665Z,46.80
2018-12-14T13:10:16.229Z,46.70
2018-12-14T13:12:43.797Z,46.50
2018-12-14T13:15:11.378Z,46.70
2018-12-14T13:17:38.983Z,46.70
2018-12-14T13:20:06.762Z,46.40
2018-12-14T13:22:34.564Z,46.60
2018-12-14T13:25:02.114Z,46.70
2018-12-14T13:27:29.636Z,46.60
2018-12-14T13:29:57.238Z,46.60
2018-12-14T13:32:24.828Z,46.60
2018-12-14T13:34:52.383Z,47.30
2018-12-14T13:37:19.965Z,46.70
2018-12-14T13:39:47.641Z,46.80
2018-12-14T13:42:15.235Z,46.70
2018-12-14T13:44:46.523Z,46.90
2018-12-14T13:47:12.789Z,46.90
2018-12-14T13:49:40.427Z,47.00
2018-12-14T13:52:08.001Z,46.90
2018-12-14T13:54:35.630Z,47.00
2018-12-14T13:57:03.201Z,46.80
2018-12-14T13:59:30.735Z,46.60
2018-12-14T14:01:58.287Z,47.10
2018-12-14T14:04:25.848Z,47.10
2018-12-14T14:06:53.403Z,47.30
2018-12-14T14:09:20.975Z,46.80
2018-12-14T14:11:48.575Z,46.90
2018-12-14T14:14:16.283Z,47.00
2018-12-14T14:16:43.978Z,47.70
2018-12-14T14:19:11.523Z,46.80
2018-12-14T14:21:39.099Z,47.00
2018-12-14T14:24:06.672Z,46.80
2018-12-14T14:26:34.239Z,46.80
2018-12-14T14:29:01.863Z,46.80
2018-12-14T14:31:29.458Z,46.50
2018-12-14T14:33:57.038Z,46.60
2018-12-14T14:36:24.585Z,46.50
2018-12-14T14:38:52.916Z,46.60
2018-12-14T14:41:20.601Z,46.60
2018-12-14T14:43:48.152Z,46.70
2018-12-14T14:46:15.703Z,46.80
2018-12-14T14:48:43.413Z,46.60
2018-12-14T14:51:11.131Z,46.50
2018-12-14T14:53:38.749Z,46.60
2018-12-14T14:56:06.416Z,46.50
2018-12-14T14:58:34.081Z,46.40
2018-12-14T15:01:01.780Z,46.40
2018-12-14T15:03:29.500Z,46.40
2018-12-14T15:05:57.163Z,46.60
2018-12-14T15:08:24.687Z,46.70
2018-12-14T15:10:52.243Z,46.60
2018-12-14T15:13:19.830Z,46.60
2018-12-14T15:15:47.367Z,46.70
2018-12-14T15:18:14.941Z,46.70
2018-12-14T15:20:42.645Z,46.90
2018-12-14T15:23:10.238Z,46.90
2018-12-14T15:25:37.876Z,46.90
2018-12-14T15:28:05.422Z,46.80
2018-12-14T15:30:32.979Z,46.80
2018-12-14T15:33:01.506Z,46.50
2018-12-14T15:35:29.184Z,46.70
2018-12-14T15:37:56.749Z,46.70
2018-12-14T15:40:24.377Z,46.60
2018-12-14T15:42:52.007Z,46.40
2018-12-14T15:45:19.557Z,46.90
2018-12-14T15:47:47.124Z,46.70
2018-12-14T15:50:14.688Z,46.60
2018-12-14T15:52:42.250Z,46.50
2018-12-14T15:55:09.776Z,46.60
2018-12-14T15:57:37.354Z,46.70
2018-12-14T16:00:06.678Z,46.50
2018-12-14T16:02:34.218Z,46.20
2018-12-14T16:05:01.787Z,46.10
2018-12-14T16:07:29.348Z,46.20
2018-12-14T16:09:57.068Z,46.40
2018-12-14T16:12:24.635Z,46.20
2018-12-14T16:14:52.268Z,46.20
2018-12-14T16:17:19.918Z,46.20
2018-12-14T16:19:47.574Z,46.10
2018-12-14T16:22:15.136Z,46.20
2018-12-14T16:24:42.706Z,46.00
2018-12-14T16:27:10.255Z,45.80
2018-12-14T16:29:37.958Z,46.20
2018-12-14T16:32:05.523Z,46.70
2018-12-14T16:34:33.145Z,46.40
2018-12-14T16:37:01.820Z,46.20
2018-12-14T16:39:29.388Z,46.00
2018-12-14T16:41:56.956Z,46.00
2018-12-14T16:44:24.508Z,46.10
2018-12-14T16:46:52.231Z,46.00
2018-12-14T16:49:20.013Z,46.10
2018-12-14T16:51:47.584Z,46.20
2018-12-14T16:54:15.208Z,46.00
2018-12-14T16:56:42.914Z,46.10
2018-12-14T16:59:10.468Z,45.90
2018-12-14T17:01:38.137Z,46.20
2018-12-14T17:04:05.956Z,46.00
2018-12-14T17:06:33.619Z,45.90
2018-12-14T17:09:01.192Z,46.00
2018-12-14T17:11:29.118Z,46.00
2018-12-14T17:13:56.697Z,46.00
2018-12-14T17:16:24.233Z,46.00
2018-12-14T17:18:51.866Z,46.10
2018-12-14T17:21:19.482Z,46.00
2018-12-14T17:23:47.061Z,46.00
2018-12-14T17:26:14.639Z,46.00
2018-12-14T17:28:42.226Z,45.90
2018-12-14T17:31:09.781Z,46.00
2018-12-14T17:33:37.533Z,46.40
2018-12-14T17:36:05.044Z,45.90
2018-12-14T17:38:32.643Z,45.60
2018-12-14T17:41:00.207Z,45.80
2018-12-14T17:43:27.742Z,45.70
2018-12-14T17:45:55.428Z,45.60
2018-12-14T17:48:23.052Z,45.70
2018-12-14T17:50:51.273Z,45.80
2018-12-14T17:53:19.053Z,45.40
2018-12-14T17:55:46.673Z,45.40
2018-12-14T17:58:14.383Z,45.20
2018-12-14T18:00:41.985Z,45.60
2018-12-14T18:03:09.545Z,45.20
2018-12-14T18:05:37.087Z,45.20
2018-12-14T18:08:04.700Z,45.30
2018-12-14T18:10:32.246Z,44.90
2018-12-14T18:12:59.812Z,45.00
2018-12-14T18:15:27.405Z,44.90
2018-12-14T18:17:54.997Z,44.80
2018-12-14T18:20:22.519Z,44.50
2018-12-14T18:22:50.310Z,44.50
2018-12-14T18:25:18.240Z,44.40
2018-12-14T18:27:45.775Z,44.10
2018-12-14T18:30:13.634Z,43.90
2018-12-14T18:32:41.162Z,44.50
2018-12-14T18:35:08.771Z,43.60
2018-12-14T18:37:36.439Z,43.80
2018-12-14T18:40:06.008Z,43.20
2018-12-14T18:42:33.605Z,43.20
2018-12-14T18:45:02.067Z,43.40
2018-12-14T18:47:29.583Z,43.00
2018-12-14T18:49:57.362Z,42.90
2018-12-14T18:52:24.918Z,42.20
2018-12-14T18:54:52.488Z,42.30
2018-12-14T18:57:20.178Z,42.20
2018-12-14T18:59:47.744Z,42.20
2018-12-14T19:02:15.277Z,42.10
2018-12-14T19:04:42.890Z,42.00
2018-12-14T19:07:10.546Z,41.80
2018-12-14T19:09:38.274Z,41.80
2018-12-14T19:12:05.917Z,41.50
2018-12-14T19:14:33.483Z,41.40
2018-12-14T19:17:01.003Z,41.20
2018-12-14T19:19:28.602Z,41.30
2018-12-14T19:21:56.238Z,40.90
2018-12-14T19:24:23.753Z,40.90
2018-12-14T19:26:51.317Z,41.00
2018-12-14T19:29:18.868Z,40.90
2018-12-14T19:31:46.398Z,40.50
2018-12-14T19:34:14.168Z,40.50
2018-12-14T19:36:41.832Z,40.70
2018-12-14T19:39:09.467Z,40.60
2018-12-14T19:41:37.050Z,40.60
2018-12-14T19:44:04.597Z,40.50
2018-12-14T19:46:32.161Z,40.40
2018-12-14T19:48:59.747Z,40.30
2018-12-14T19:51:27.401Z,40.10
2018-12-14T19:53:54.960Z,40.10
2018-12-14T19:56:22.565Z,39.90
2018-12-14T19:58:50.255Z,40.00
2018-12-14T20:01:17.870Z,40.10
2018-12-14T20:03:45.603Z,39.80
2018-12-14T20:06:13.242Z,39.50
2018-12-14T20:08:40.786Z,39.70
2018-12-14T20:11:08.435Z,39.60
2018-12-14T20:13:35.989Z,40.30
2018-12-14T20:16:03.530Z,39.70
2018-12-14T20:18:31.164Z,39.40
2018-12-14T20:20:58.814Z,39.40
2018-12-14T20:23:26.374Z,39.40
2018-12-14T20:25:53.986Z,39.40
2018-12-14T20:28:21.543Z,39.40
2018-12-14T20:30:49.054Z,39.20
2018-12-14T20:33:16.873Z,39.10
2018-12-14T20:35:44.451Z,39.20
2018-12-14T20:38:12.079Z,39.10
2018-12-14T20:40:39.667Z,38.90
2018-12-14T20:43:07.197Z,38.90
2018-12-14T20:45:34.797Z,38.80
2018-12-14T20:48:02.440Z,38.90
2018-12-14T20:50:29.975Z,39.00
2018-12-14T20:52:57.509Z,39.00
2018-12-14T20:55:26.184Z,38.90
2018-12-14T20:57:53.725Z,38.80
2018-12-14T21:00:21.621Z,39.40
2018-12-14T21:02:49.339Z,38.60
2018-12-14T21:05:16.877Z,38.70
2018-12-14T21:07:45.366Z,38.70
2018-12-14T21:10:13.223Z,38.60
2018-12-14T21:12:40.741Z,38.50
2018-12-14T21:15:08.378Z,38.60
2018-12-14T21:17:35.986Z,38.40
2018-12-14T21:20:04.716Z,38.60
2018-12-14T21:22:32.256Z,38.40
2018-12-14T21:24:59.818Z,38.50
2018-12-14T21:27:27.469Z,38.30
2018-12-14T21:29:54.994Z,38.40
2018-12-14T21:32:22.722Z,38.30
2018-12-14T21:34:50.254Z,38.30
2018-12-14T21:37:18.675Z,38.30
2018-12-14T21:39:46.844Z,38.50
2018-12-14T21:42:14.382Z,38.30
2018-12-14T21:44:42.825Z,38.30
2018-12-14T21:47:10.442Z,38.40
2018-12-14T21:49:39.950Z,38.10
2018-12-14T21:52:07.614Z,38.00
2018-12-14T21:54:35.470Z,38.20
2018-12-14T21:57:03.102Z,38.10
2018-12-14T21:59:30.661Z,38.00
2018-12-14T22:01:58.235Z,38.10
2018-12-14T22:04:25.799Z,37.90
2018-12-14T22:06:53.319Z,38.00
2018-12-14T22:09:20.886Z,38.10
2018-12-14T22:11:48.422Z,37.80
2018-12-14T22:14:16.030Z,38.20
2018-12-14T22:16:43.589Z,38.30
2018-12-14T22:19:11.219Z,38.30
2018-12-14T22:21:39.213Z,38.10
2018-12-14T22:24:07.720Z,38.20
2018-12-14T22:26:35.245Z,38.00
2018-12-14T22:29:02.907Z,38.10
2018-12-14T22:31:30.496Z,37.90
2018-12-14T22:33:58.081Z,38.00
2018-12-14T22:36:25.638Z,37.80
2018-12-14T22:38:53.162Z,37.80
2018-12-14T22:41:20.697Z,38.00
2018-12-14T22:43:48.407Z,37.90
2018-12-14T22:46:15.918Z,37.70
2018-12-14T22:48:43.491Z,37.90
2018-12-14T22:51:11.538Z,37.80
2018-12-14T22:53:39.206Z,37.90
2018-12-14T22:56:06.818Z,37.80
2018-12-14T22:58:34.367Z,38.00
2018-12-14T23:01:01.997Z,37.90
2018-12-14T23:03:29.514Z,37.90
2018-12-14T23:05:58.067Z,37.70
2018-12-14T23:08:25.607Z,37.80
2018-12-14T23:10:53.183Z,37.80
2018-12-14T23:13:21.059Z,37.60
2018-12-14T23:15:48.595Z,37.90
2018-12-14T23:18:17.516Z,37.80
2018-12-14T23:20:45.084Z,37.90
2018-12-14T23:23:12.630Z,37.50
2018-12-14T23:25:40.184Z,37.60
2018-12-14T23:28:08.891Z,37.70
2018-12-14T23:30:36.415Z,37.90
2018-12-14T23:33:04.173Z,38.00
2018-12-14T23:35:31.719Z,37.70
2018-12-14T23:37:59.354Z,37.80
2018-12-14T23:40:26.925Z,37.50
2018-12-14T23:42:54.576Z,38.00
2018-12-14T23:45:22.194Z,37.80
2018-12-14T23:47:49.694Z,37.90
2018-12-14T23:50:17.238Z,37.60
2018-12-14T23:52:44.878Z,37.60
2018-12-14T23:55:12.410Z,37.60
2018-12-14T23:57:40.389Z,37.80
